createdAt,value
2019-05-21T00:00:10.131Z,15.25
2019-05-21T00:01:10.137Z,15.20
2019-05-21T00:02:10.111Z,15.16
2019-05-21T00:03:10.124Z,15.12
2019-05-21T00:04:10.082Z,15.20
2019-05-21T00:05:10.101Z,15.16
2019-05-21T00:06:10.070Z,15.20
2019-05-21T00:07:10.055Z,15.19
2019-05-21T00:08:10.045Z,15.11
2019-05-21T00:09:10.048Z,15.11
2019-05-21T00:10:10.018Z,15.11
2019-05-21T00:11:10.008Z,15.11
2019-05-21T00:12:10.003Z,15.05
2019-05-21T00:13:09.993Z,15.04
2019-05-21T00:14:09.996Z,15.09
2019-05-21T00:15:09.969Z,15.05
2019-05-21T00:16:09.959Z,15.16
2019-05-21T00:17:09.966Z,15.16
2019-05-21T00:18:09.935Z,15.07
2019-05-21T00:19:09.943Z,15.13
2019-05-21T00:20:09.921Z,15.07
2019-05-21T00:21:09.910Z,15.19
2019-05-21T00:22:09.896Z,15.15
2019-05-21T00:23:09.883Z,15.12
2019-05-21T00:24:09.872Z,15.12
2019-05-21T00:25:09.885Z,15.09
2019-05-21T00:26:09.854Z,15.12
2019-05-21T00:27:09.848Z,15.12
2019-05-21T00:28:09.826Z,15.05
2019-05-21T00:29:09.815Z,15.04
2019-05-21T00:30:09.828Z,15.05
2019-05-21T00:31:09.791Z,15.00
2019-05-21T00:32:09.789Z,15.01
2019-05-21T00:33:09.788Z,14.98
2019-05-21T00:34:09.767Z,14.95
2019-05-21T00:35:09.761Z,15.01
2019-05-21T00:36:09.769Z,14.91
2019-05-21T00:37:09.736Z,14.93
2019-05-21T00:38:09.727Z,14.87
2019-05-21T00:39:09.716Z,14.83
2019-05-21T00:40:09.692Z,14.87
2019-05-21T00:41:09.686Z,14.86
2019-05-21T00:42:09.686Z,14.80
2019-05-21T00:43:09.662Z,14.85
2019-05-21T00:44:09.661Z,14.90
2019-05-21T00:45:09.650Z,14.91
2019-05-21T00:46:09.669Z,14.85
2019-05-21T00:47:09.632Z,14.83
2019-05-21T00:48:09.608Z,14.82
2019-05-21T00:49:09.596Z,14.67
2019-05-21T00:50:09.585Z,14.69
2019-05-21T00:51:09.575Z,14.82
2019-05-21T00:52:09.757Z,14.90
2019-05-21T00:53:09.561Z,14.83
2019-05-21T00:54:09.541Z,14.87
2019-05-21T00:55:09.532Z,14.91
2019-05-21T00:56:09.531Z,14.85
2019-05-21T00:57:09.545Z,14.80
2019-05-21T00:58:09.504Z,14.87
2019-05-21T00:59:09.498Z,14.87
2019-05-21T01:00:09.560Z,14.94
2019-05-21T01:01:09.467Z,14.90
2019-05-21T01:02:09.469Z,14.90
2019-05-21T01:03:09.477Z,14.82
2019-05-21T01:04:09.443Z,14.72
2019-05-21T01:05:09.439Z,14.82
2019-05-21T01:06:09.423Z,14.74
2019-05-21T01:07:09.428Z,14.69
2019-05-21T01:08:09.406Z,14.71
2019-05-21T01:09:09.401Z,14.69
2019-05-21T01:10:09.388Z,14.75
2019-05-21T01:11:09.376Z,14.61
2019-05-21T01:12:09.363Z,14.67
2019-05-21T01:13:09.345Z,14.67
2019-05-21T01:14:09.352Z,14.78
2019-05-21T01:15:09.347Z,14.67
2019-05-21T01:16:09.312Z,14.75
2019-05-21T01:17:09.313Z,14.60
2019-05-21T01:18:09.295Z,14.72
2019-05-21T01:19:09.280Z,14.61
2019-05-21T01:20:09.277Z,14.63
2019-05-21T01:21:09.253Z,14.69
2019-05-21T01:22:09.244Z,14.60
2019-05-21T01:23:09.228Z,14.61
2019-05-21T01:24:09.236Z,14.71
2019-05-21T01:25:09.228Z,14.63
2019-05-21T01:26:09.198Z,14.63
2019-05-21T01:27:09.185Z,14.64
2019-05-21T01:28:09.185Z,14.63
2019-05-21T01:29:09.171Z,14.59
2019-05-21T01:30:09.194Z,14.63
2019-05-21T01:31:09.154Z,14.61
2019-05-21T01:32:09.147Z,14.60
2019-05-21T01:33:09.131Z,14.63
2019-05-21T01:34:11.374Z,14.63
2019-05-21T01:35:17.217Z,14.61
2019-05-21T01:36:10.109Z,14.63
2019-05-21T01:37:09.089Z,14.57
2019-05-21T01:38:09.077Z,14.57
2019-05-21T01:39:09.068Z,14.60
2019-05-21T01:40:09.061Z,14.60
2019-05-21T01:41:09.072Z,14.56
2019-05-21T01:42:09.045Z,14.52
2019-05-21T01:43:09.021Z,14.56
2019-05-21T01:44:09.017Z,14.44
2019-05-21T01:45:09.005Z,14.48
2019-05-21T01:46:08.993Z,14.42
2019-05-21T01:47:09.004Z,14.42
2019-05-21T01:48:08.975Z,14.42
2019-05-21T01:49:08.958Z,14.45
2019-05-21T01:50:08.951Z,14.38
2019-05-21T01:51:08.942Z,14.45
2019-05-21T01:52:08.955Z,14.39
2019-05-21T01:53:08.926Z,14.38
2019-05-21T01:54:08.906Z,14.41
2019-05-21T01:55:08.897Z,14.38
2019-05-21T01:56:08.882Z,14.27
2019-05-21T01:57:08.871Z,14.38
2019-05-21T01:58:08.890Z,14.26
2019-05-21T01:59:08.859Z,14.34
2019-05-21T02:00:08.835Z,14.34
2019-05-21T02:01:08.823Z,14.27
2019-05-21T02:02:08.813Z,14.39
2019-05-21T02:03:08.803Z,14.34
2019-05-21T02:04:08.808Z,14.35
2019-05-21T02:05:08.784Z,14.21
2019-05-21T02:06:08.774Z,14.35
2019-05-21T02:07:08.759Z,14.20
2019-05-21T02:08:08.744Z,14.19
2019-05-21T02:09:08.757Z,14.19
2019-05-21T02:10:08.722Z,14.19
2019-05-21T02:11:08.710Z,14.20
2019-05-21T02:12:10.774Z,14.23
2019-05-21T02:13:08.698Z,14.23
2019-05-21T02:14:08.678Z,14.20
2019-05-21T02:15:08.693Z,14.20
2019-05-21T02:16:08.662Z,14.29
2019-05-21T02:17:08.650Z,14.23
2019-05-21T02:18:08.638Z,14.17
2019-05-21T02:19:08.627Z,14.27
2019-05-21T02:20:08.619Z,14.19
2019-05-21T02:21:08.624Z,14.24
2019-05-21T02:22:08.589Z,14.21
2019-05-21T02:23:08.581Z,14.20
2019-05-21T02:24:08.577Z,14.19
2019-05-21T02:25:08.562Z,14.19
2019-05-21T02:26:08.557Z,14.05
2019-05-21T02:27:08.557Z,14.09
2019-05-21T02:28:08.525Z,14.09
2019-05-21T02:29:08.526Z,14.06
2019-05-21T02:30:09.689Z,14.17
2019-05-21T02:31:08.502Z,14.08
2019-05-21T02:32:08.503Z,14.05
2019-05-21T02:33:08.505Z,14.09
2019-05-21T02:34:08.474Z,14.11
2019-05-21T02:35:08.498Z,14.08
2019-05-21T02:36:08.449Z,14.06
2019-05-21T02:37:08.451Z,14.06
2019-05-21T02:38:08.429Z,13.98
2019-05-21T02:39:08.417Z,14.05
2019-05-21T02:40:08.408Z,13.99
2019-05-21T02:41:08.393Z,13.98
2019-05-21T02:42:08.403Z,13.96
2019-05-21T02:43:08.371Z,14.04
2019-05-21T02:44:08.359Z,13.98
2019-05-21T02:45:08.409Z,13.91
2019-05-21T02:46:08.351Z,13.94
2019-05-21T02:47:08.361Z,13.98
2019-05-21T02:48:08.912Z,13.91
2019-05-21T02:49:08.314Z,13.98
2019-05-21T02:50:08.299Z,13.91
2019-05-21T02:51:08.301Z,13.99
2019-05-21T02:52:08.294Z,13.99
2019-05-21T02:53:08.258Z,14.01
2019-05-21T02:54:08.250Z,14.01
2019-05-21T02:55:08.242Z,13.99
2019-05-21T02:56:08.239Z,13.96
2019-05-21T02:57:08.247Z,13.94
2019-05-21T02:58:08.218Z,13.91
2019-05-21T02:59:08.206Z,13.91
2019-05-21T03:00:08.197Z,13.99
2019-05-21T03:01:08.179Z,13.90
2019-05-21T03:02:08.184Z,13.90
2019-05-21T03:03:08.185Z,13.87
2019-05-21T03:04:08.146Z,13.88
2019-05-21T03:05:08.129Z,13.84
2019-05-21T03:06:14.513Z,13.91
2019-05-21T03:07:09.131Z,13.80
2019-05-21T03:08:08.115Z,13.87
2019-05-21T03:09:08.121Z,13.86
2019-05-21T03:10:08.087Z,13.84
2019-05-21T03:11:08.076Z,13.86
2019-05-21T03:12:08.089Z,13.79
2019-05-21T03:13:08.049Z,13.87
2019-05-21T03:14:08.070Z,13.84
2019-05-21T03:15:08.036Z,13.90
2019-05-21T03:16:08.023Z,13.84
2019-05-21T03:17:08.013Z,13.84
2019-05-21T03:18:08.020Z,13.83
2019-05-21T03:19:07.987Z,13.83
2019-05-21T03:20:07.983Z,13.83
2019-05-21T03:21:07.979Z,13.83
2019-05-21T03:22:07.958Z,13.83
2019-05-21T03:23:07.958Z,13.88
2019-05-21T03:24:07.944Z,13.76
2019-05-21T03:25:07.931Z,13.79
2019-05-21T03:26:07.916Z,13.81
2019-05-21T03:27:07.907Z,13.80
2019-05-21T03:28:07.907Z,13.90
2019-05-21T03:29:07.918Z,13.88
2019-05-21T03:30:07.880Z,13.79
2019-05-21T03:31:07.884Z,13.81
2019-05-21T03:32:07.864Z,13.81
2019-05-21T03:33:07.857Z,13.93
2019-05-21T03:34:07.837Z,13.86
2019-05-21T03:35:07.856Z,13.83
2019-05-21T03:36:07.820Z,13.81
2019-05-21T03:37:07.794Z,13.86
2019-05-21T03:38:07.785Z,13.90
2019-05-21T03:39:07.791Z,13.91
2019-05-21T03:40:07.782Z,13.87
2019-05-21T03:41:07.802Z,13.94
2019-05-21T03:42:07.755Z,13.83
2019-05-21T03:43:07.742Z,13.91
2019-05-21T03:44:07.728Z,13.98
2019-05-21T03:45:08.457Z,13.91
2019-05-21T03:46:07.708Z,13.90
2019-05-21T03:47:07.771Z,13.94
2019-05-21T03:48:07.688Z,13.98
2019-05-21T03:49:07.671Z,14.04
2019-05-21T03:50:07.666Z,13.99
2019-05-21T03:51:07.663Z,14.02
2019-05-21T03:52:07.668Z,14.12
2019-05-21T03:53:07.631Z,14.09
2019-05-21T03:54:07.624Z,14.11
2019-05-21T03:55:07.608Z,14.09
2019-05-21T03:56:07.593Z,14.09
2019-05-21T03:57:07.600Z,14.06
2019-05-21T03:58:07.601Z,14.09
2019-05-21T03:59:07.561Z,14.16
2019-05-21T04:00:07.565Z,14.24
2019-05-21T04:01:07.545Z,14.21
2019-05-21T04:02:07.533Z,14.19
2019-05-21T04:03:07.551Z,14.21
2019-05-21T04:04:07.505Z,14.21
2019-05-21T04:05:07.506Z,14.21
2019-05-21T04:06:07.490Z,14.21
2019-05-21T04:07:07.487Z,14.23
2019-05-21T04:08:07.463Z,14.23
2019-05-21T04:09:07.469Z,14.24
2019-05-21T04:10:07.444Z,14.24
2019-05-21T04:11:07.445Z,14.31
2019-05-21T04:12:07.425Z,14.36
2019-05-21T04:13:07.585Z,14.34
2019-05-21T04:14:07.417Z,14.34
2019-05-21T04:15:07.393Z,14.36
2019-05-21T04:16:07.381Z,14.36
2019-05-21T04:17:07.408Z,14.42
2019-05-21T04:18:07.350Z,14.45
2019-05-21T04:19:07.367Z,14.46
2019-05-21T04:20:07.336Z,14.48
2019-05-21T04:21:07.334Z,14.42
2019-05-21T04:22:07.309Z,14.46
2019-05-21T04:23:07.301Z,14.52
2019-05-21T04:24:08.920Z,14.61
2019-05-21T04:25:07.299Z,14.54
2019-05-21T04:26:07.281Z,14.63
2019-05-21T04:27:07.267Z,14.64
2019-05-21T04:28:07.247Z,14.57
2019-05-21T04:29:07.229Z,14.64
2019-05-21T04:30:11.095Z,14.72
2019-05-21T04:31:07.209Z,14.79
2019-05-21T04:32:07.212Z,14.74
2019-05-21T04:33:07.313Z,14.79
2019-05-21T04:34:07.199Z,14.72
2019-05-21T04:35:07.204Z,14.75
2019-05-21T04:36:07.162Z,14.80
2019-05-21T04:37:10.524Z,14.83
2019-05-21T04:38:07.151Z,14.83
2019-05-21T04:39:07.139Z,14.80
2019-05-21T04:40:07.111Z,14.98
2019-05-21T04:41:07.119Z,14.87
2019-05-21T04:42:07.098Z,14.95
2019-05-21T04:43:07.111Z,14.97
2019-05-21T04:44:07.080Z,15.00
2019-05-21T04:45:07.064Z,15.01
2019-05-21T04:46:07.070Z,15.05
2019-05-21T04:47:07.041Z,14.95
2019-05-21T04:48:07.026Z,15.01
2019-05-21T04:49:07.021Z,15.09
2019-05-21T04:50:07.016Z,15.12
2019-05-21T04:51:07.032Z,15.13
2019-05-21T04:52:06.996Z,15.18
2019-05-21T04:53:06.981Z,15.12
2019-05-21T04:54:06.969Z,15.20
2019-05-21T04:55:07.021Z,15.27
2019-05-21T04:56:06.960Z,15.28
2019-05-21T04:57:06.959Z,15.33
2019-05-21T04:58:06.924Z,15.33
2019-05-21T04:59:06.916Z,15.37
2019-05-21T05:00:06.900Z,15.35
2019-05-21T05:01:06.893Z,15.35
2019-05-21T05:02:06.939Z,15.44
2019-05-21T05:03:06.875Z,15.40
2019-05-21T05:04:06.862Z,15.53
2019-05-21T05:05:06.858Z,15.40
2019-05-21T05:06:06.847Z,15.49
2019-05-21T05:07:06.854Z,15.43
2019-05-21T05:08:06.977Z,15.41
2019-05-21T05:09:06.797Z,15.48
2019-05-21T05:10:06.795Z,15.51
2019-05-21T05:11:06.792Z,15.56
2019-05-21T05:12:06.769Z,15.59
2019-05-21T05:13:06.768Z,15.64
2019-05-21T05:14:06.772Z,15.64
2019-05-21T05:15:06.748Z,15.76
2019-05-21T05:16:06.740Z,15.64
2019-05-21T05:17:06.729Z,15.70
2019-05-21T05:18:06.740Z,15.62
2019-05-21T05:19:06.711Z,15.78
2019-05-21T05:20:06.701Z,15.71
2019-05-21T05:21:06.674Z,15.78
2019-05-21T05:22:06.679Z,15.81
2019-05-21T05:23:06.657Z,15.76
2019-05-21T05:24:06.666Z,15.88
2019-05-21T05:25:06.651Z,15.92
2019-05-21T05:26:06.618Z,15.88
2019-05-21T05:27:06.606Z,15.77
2019-05-21T05:28:06.622Z,15.85
2019-05-21T05:29:06.603Z,15.98
2019-05-21T05:30:06.580Z,15.98
2019-05-21T05:31:06.578Z,16.01
2019-05-21T05:32:06.582Z,16.13
2019-05-21T05:33:06.544Z,16.32
2019-05-21T05:34:06.557Z,16.59
2019-05-21T05:35:06.522Z,16.96
2019-05-21T05:36:06.519Z,17.17
2019-05-21T05:37:06.511Z,17.47
2019-05-21T05:38:06.535Z,17.58
2019-05-21T05:39:06.482Z,17.94
2019-05-21T05:40:06.666Z,18.31
2019-05-21T05:41:06.459Z,18.59
2019-05-21T05:42:06.454Z,18.94
2019-05-21T05:43:06.458Z,19.45
2019-05-21T05:44:06.426Z,19.67
2019-05-21T05:45:06.447Z,20.02
2019-05-21T05:46:06.407Z,20.42
2019-05-21T05:47:06.387Z,20.38
2019-05-21T05:48:06.389Z,20.38
2019-05-21T05:49:06.374Z,20.23
2019-05-21T05:50:06.402Z,20.17
2019-05-21T05:51:06.352Z,20.48
2019-05-21T05:52:06.335Z,20.57
2019-05-21T05:53:06.332Z,21.05
2019-05-21T05:54:07.785Z,21.53
2019-05-21T05:55:06.304Z,22.08
2019-05-21T05:56:06.308Z,22.31
2019-05-21T05:57:06.283Z,22.64
2019-05-21T05:58:06.276Z,22.97
2019-05-21T05:59:06.261Z,23.22
2019-05-21T06:00:06.266Z,23.60
2019-05-21T06:01:06.269Z,24.04
2019-05-21T06:02:06.233Z,24.16
2019-05-21T06:03:06.224Z,24.52
2019-05-21T06:04:06.204Z,24.93
2019-05-21T06:05:06.194Z,25.14
2019-05-21T06:06:06.197Z,25.38
2019-05-21T06:07:06.216Z,25.60
2019-05-21T06:08:06.170Z,25.44
2019-05-21T06:09:06.156Z,25.08
2019-05-21T06:10:06.190Z,25.20
2019-05-21T06:11:06.184Z,25.14
2019-05-21T06:12:06.131Z,25.16
2019-05-21T06:13:06.123Z,24.87
2019-05-21T06:14:06.106Z,24.52
2019-05-21T06:15:06.112Z,24.67
2019-05-21T06:16:06.076Z,25.20
2019-05-21T06:17:06.122Z,25.60
2019-05-21T06:18:06.083Z,25.96
2019-05-21T06:19:06.058Z,26.16
2019-05-21T06:20:06.046Z,26.46
2019-05-21T06:21:06.034Z,26.75
2019-05-21T06:22:06.045Z,26.61
2019-05-21T06:23:06.070Z,26.81
2019-05-21T06:24:06.010Z,26.87
2019-05-21T06:25:06.216Z,26.86
2019-05-21T06:26:06.076Z,26.97
2019-05-21T06:27:05.973Z,26.90
2019-05-21T06:28:05.969Z,26.39
2019-05-21T06:29:05.963Z,26.34
2019-05-21T06:30:05.941Z,26.57
2019-05-21T06:31:05.917Z,26.88
2019-05-21T06:32:05.927Z,27.25
2019-05-21T06:33:05.908Z,27.62
2019-05-21T06:34:05.894Z,27.95
2019-05-21T06:35:05.896Z,28.11
2019-05-21T06:36:05.867Z,28.28
2019-05-21T06:37:05.916Z,27.86
2019-05-21T06:38:17.331Z,26.79
2019-05-21T06:39:06.824Z,26.19
2019-05-21T06:40:05.823Z,25.64
2019-05-21T06:41:05.825Z,25.71
2019-05-21T06:42:05.821Z,25.29
2019-05-21T06:43:05.796Z,25.12
2019-05-21T06:44:05.776Z,24.18
2019-05-21T06:45:05.848Z,24.21
2019-05-21T06:46:05.767Z,23.63
2019-05-21T06:47:05.786Z,23.77
2019-05-21T06:48:05.743Z,24.55
2019-05-21T06:49:05.719Z,25.14
2019-05-21T06:50:05.711Z,24.94
2019-05-21T06:51:05.709Z,24.60
2019-05-21T06:52:05.706Z,25.31
2019-05-21T06:53:05.689Z,25.66
2019-05-21T06:54:05.692Z,25.97
2019-05-21T06:55:05.670Z,26.23
2019-05-21T06:56:07.478Z,26.28
2019-05-21T06:57:05.655Z,26.86
2019-05-21T06:58:05.627Z,27.58
2019-05-21T06:59:05.614Z,28.05
2019-05-21T07:00:05.612Z,28.36
2019-05-21T07:01:06.028Z,27.74
2019-05-21T07:02:05.642Z,26.68
2019-05-21T07:03:05.646Z,26.46
2019-05-21T07:04:05.642Z,25.98
2019-05-21T07:05:05.566Z,26.00
2019-05-21T07:06:05.553Z,26.09
2019-05-21T07:07:05.573Z,26.56
2019-05-21T07:08:05.531Z,27.11
2019-05-21T07:09:05.522Z,26.39
2019-05-21T07:10:05.518Z,26.36
2019-05-21T07:11:05.496Z,26.28
2019-05-21T07:12:05.507Z,26.17
2019-05-21T07:13:05.520Z,26.60
2019-05-21T07:14:05.479Z,27.34
2019-05-21T07:15:05.476Z,28.33
2019-05-21T07:16:05.884Z,29.15
2019-05-21T07:17:05.432Z,29.86
2019-05-21T07:18:05.429Z,30.38
2019-05-21T07:19:05.433Z,30.42
2019-05-21T07:20:05.410Z,30.54
2019-05-21T07:21:05.404Z,30.75
2019-05-21T07:22:12.593Z,30.90
2019-05-21T07:23:06.484Z,30.37
2019-05-21T07:24:05.389Z,30.30
2019-05-21T07:25:05.365Z,30.61
2019-05-21T07:26:05.349Z,31.01
2019-05-21T07:27:05.430Z,30.03
2019-05-21T07:28:05.319Z,28.50
2019-05-21T07:29:05.343Z,27.52
2019-05-21T07:30:05.310Z,27.74
2019-05-21T07:31:05.285Z,28.60
2019-05-21T07:32:05.278Z,28.76
2019-05-21T07:33:05.649Z,28.94
2019-05-21T07:34:05.252Z,29.49
2019-05-21T07:35:05.267Z,29.70
2019-05-21T07:36:05.239Z,29.00
2019-05-21T07:37:05.228Z,27.63
2019-05-21T07:38:05.220Z,26.79
2019-05-21T07:39:05.236Z,26.42
2019-05-21T07:40:05.190Z,26.17
2019-05-21T07:41:05.178Z,26.35
2019-05-21T07:42:05.168Z,26.56
2019-05-21T07:43:05.158Z,26.93
2019-05-21T07:44:05.290Z,28.18
2019-05-21T07:45:05.172Z,29.33
2019-05-21T07:46:05.223Z,30.53
2019-05-21T07:47:05.122Z,31.35
2019-05-21T07:48:05.107Z,30.96
2019-05-21T07:49:05.107Z,30.46
2019-05-21T07:50:05.108Z,30.13
2019-05-21T07:51:05.079Z,29.64
2019-05-21T07:52:05.078Z,29.49
2019-05-21T07:53:05.095Z,30.37
2019-05-21T07:54:05.061Z,31.04
2019-05-21T07:55:05.059Z,31.56
2019-05-21T07:56:05.056Z,31.50
2019-05-21T07:57:05.025Z,31.79
2019-05-21T07:58:05.013Z,31.62
2019-05-21T07:59:05.003Z,30.78
2019-05-21T08:00:04.986Z,30.56
2019-05-21T08:01:05.002Z,30.34
2019-05-21T08:02:04.971Z,30.79
2019-05-21T08:03:04.967Z,31.27
2019-05-21T08:04:04.965Z,31.75
2019-05-21T08:05:05.072Z,32.49
2019-05-21T08:06:04.964Z,33.06
2019-05-21T08:07:04.941Z,33.34
2019-05-21T08:08:04.932Z,33.94
2019-05-21T08:09:13.432Z,33.05
2019-05-21T08:10:05.902Z,33.11
2019-05-21T08:11:04.886Z,33.70
2019-05-21T08:12:27.483Z,33.94
2019-05-21T08:13:05.870Z,34.52
2019-05-21T08:14:04.861Z,34.58
2019-05-21T08:15:04.845Z,35.02
2019-05-21T08:16:04.841Z,33.87
2019-05-21T08:17:04.842Z,32.51
2019-05-21T08:18:04.849Z,30.82
2019-05-21T08:19:04.809Z,30.11
2019-05-21T08:20:10.016Z,29.94
2019-05-21T08:21:05.785Z,29.76
2019-05-21T08:22:04.809Z,29.94
2019-05-21T08:23:04.764Z,30.30
2019-05-21T08:24:04.769Z,30.85
2019-05-21T08:25:04.741Z,31.97
2019-05-21T08:26:04.737Z,33.02
2019-05-21T08:27:04.723Z,33.78
2019-05-21T08:28:04.749Z,34.55
2019-05-21T08:29:04.712Z,35.44
2019-05-21T08:30:04.702Z,36.03
2019-05-21T08:31:04.693Z,36.33
2019-05-21T08:32:04.680Z,36.41
2019-05-21T08:33:04.714Z,36.06
2019-05-21T08:34:04.658Z,35.00
2019-05-21T08:35:04.650Z,33.82
2019-05-21T08:36:05.201Z,32.16
2019-05-21T08:37:04.641Z,30.61
2019-05-21T08:38:06.764Z,30.83
2019-05-21T08:39:04.617Z,31.64
2019-05-21T08:40:04.629Z,32.07
2019-05-21T08:41:04.598Z,32.47
2019-05-21T08:42:04.587Z,33.11
2019-05-21T08:43:04.604Z,33.77
2019-05-21T08:44:04.571Z,32.65
2019-05-21T08:45:04.696Z,32.17
2019-05-21T08:46:04.548Z,32.69
2019-05-21T08:47:04.534Z,33.59
2019-05-21T08:48:04.551Z,34.30
2019-05-21T08:49:04.551Z,34.03
2019-05-21T08:50:04.512Z,34.23
2019-05-21T08:51:04.503Z,34.76
2019-05-21T08:52:04.492Z,35.27
2019-05-21T08:53:04.508Z,34.12
2019-05-21T08:54:04.472Z,33.14
2019-05-21T08:55:04.517Z,32.98
2019-05-21T08:56:04.451Z,33.79
2019-05-21T08:57:04.453Z,34.37
2019-05-21T08:58:07.282Z,33.94
2019-05-21T08:59:04.422Z,33.50
2019-05-21T09:00:04.422Z,33.37
2019-05-21T09:01:04.465Z,31.85
2019-05-21T09:02:04.408Z,31.10
2019-05-21T09:03:04.394Z,30.40
2019-05-21T09:04:04.377Z,29.44
2019-05-21T09:05:04.369Z,30.30
2019-05-21T09:06:04.376Z,28.65
2019-05-21T09:07:04.342Z,27.27
2019-05-21T09:08:04.343Z,26.65
2019-05-21T09:09:04.344Z,27.68
2019-05-21T09:10:04.315Z,28.13
2019-05-21T09:11:04.331Z,29.18
2019-05-21T09:12:04.305Z,30.07
2019-05-21T09:13:04.294Z,31.67
2019-05-21T09:14:04.290Z,31.04
2019-05-21T09:15:04.277Z,29.88
2019-05-21T09:16:04.276Z,28.94
2019-05-21T09:17:04.263Z,28.91
2019-05-21T09:18:04.241Z,29.74
2019-05-21T09:19:04.313Z,30.76
2019-05-21T09:20:04.230Z,30.61
2019-05-21T09:21:04.241Z,30.08
2019-05-21T09:22:04.216Z,31.45
2019-05-21T09:23:04.207Z,32.77
2019-05-21T09:24:04.190Z,34.49
2019-05-21T09:25:04.435Z,35.05
2019-05-21T09:26:04.168Z,33.55
2019-05-21T09:27:04.181Z,32.03
2019-05-21T09:28:04.156Z,31.72
2019-05-21T09:29:04.144Z,32.83
2019-05-21T09:30:04.127Z,32.87
2019-05-21T09:31:04.156Z,32.35
2019-05-21T09:32:04.145Z,32.98
2019-05-21T09:33:04.110Z,33.57
2019-05-21T09:34:04.095Z,32.63
2019-05-21T09:35:04.088Z,32.43
2019-05-21T09:36:04.080Z,31.30
2019-05-21T09:37:18.654Z,31.09
2019-05-21T09:38:05.062Z,31.67
2019-05-21T09:39:04.042Z,31.54
2019-05-21T09:40:04.126Z,31.79
2019-05-21T09:41:04.027Z,32.58
2019-05-21T09:42:04.025Z,32.81
2019-05-21T09:43:04.022Z,31.34
2019-05-21T09:44:03.999Z,30.78
2019-05-21T09:45:03.998Z,28.73
2019-05-21T09:46:03.978Z,28.08
2019-05-21T09:47:03.970Z,27.55
2019-05-21T09:48:03.960Z,26.90
2019-05-21T09:49:03.976Z,26.88
2019-05-21T09:50:04.147Z,27.23
2019-05-21T09:51:03.947Z,27.59
2019-05-21T09:52:03.926Z,28.38
2019-05-21T09:53:03.919Z,30.26
2019-05-21T09:54:03.906Z,31.90
2019-05-21T09:55:03.917Z,33.33
2019-05-21T09:56:03.884Z,34.60
2019-05-21T09:57:03.888Z,35.12
2019-05-21T09:58:03.872Z,35.59
2019-05-21T09:59:03.856Z,35.31
2019-05-21T10:00:04.214Z,34.69
2019-05-21T10:01:03.854Z,32.76
2019-05-21T10:02:03.829Z,31.82
2019-05-21T10:03:03.819Z,32.51
2019-05-21T10:04:03.808Z,32.96
2019-05-21T10:05:03.798Z,31.82
2019-05-21T10:06:03.787Z,30.73
2019-05-21T10:07:03.789Z,30.01
2019-05-21T10:08:03.772Z,29.62
2019-05-21T10:09:03.767Z,29.49
2019-05-21T10:10:03.754Z,29.35
2019-05-21T10:11:03.751Z,29.00
2019-05-21T10:12:03.751Z,28.94
2019-05-21T10:13:03.721Z,28.79
2019-05-21T10:14:03.715Z,28.61
2019-05-21T10:15:03.723Z,28.45
2019-05-21T10:16:03.694Z,28.32
2019-05-21T10:17:03.702Z,28.30
2019-05-21T10:18:03.710Z,28.06
2019-05-21T10:19:03.665Z,27.46
2019-05-21T10:20:03.664Z,27.27
2019-05-21T10:21:03.650Z,27.16
2019-05-21T10:22:03.700Z,27.12
2019-05-21T10:23:03.635Z,27.12
2019-05-21T10:24:03.635Z,27.27
2019-05-21T10:25:03.601Z,27.42
2019-05-21T10:26:03.603Z,27.98
2019-05-21T10:27:03.761Z,28.79
2019-05-21T10:28:03.586Z,29.30
2019-05-21T10:29:03.562Z,28.88
2019-05-21T10:30:03.546Z,28.50
2019-05-21T10:31:03.538Z,28.43
2019-05-21T10:32:03.592Z,28.01
2019-05-21T10:33:03.535Z,27.28
2019-05-21T10:34:03.525Z,26.76
2019-05-21T10:35:04.921Z,26.12
2019-05-21T10:36:03.486Z,25.64
2019-05-21T10:37:03.520Z,25.38
2019-05-21T10:38:03.472Z,25.30
2019-05-21T10:39:03.455Z,25.53
2019-05-21T10:40:03.485Z,25.76
2019-05-21T10:41:03.440Z,25.96
2019-05-21T10:42:03.433Z,26.13
2019-05-21T10:43:03.444Z,26.32
2019-05-21T10:44:03.421Z,26.50
2019-05-21T10:45:03.402Z,26.60
2019-05-21T10:46:03.394Z,26.69
2019-05-21T10:47:03.402Z,26.69
2019-05-21T10:48:03.392Z,26.65
2019-05-21T10:49:03.376Z,26.57
2019-05-21T10:50:03.383Z,26.36
2019-05-21T10:51:03.381Z,26.32
2019-05-21T10:52:03.336Z,26.39
2019-05-21T10:53:03.398Z,26.57
2019-05-21T10:54:03.317Z,26.68
2019-05-21T10:55:03.320Z,26.79
2019-05-21T10:56:03.330Z,26.90
2019-05-21T10:57:03.303Z,26.84
2019-05-21T10:58:03.311Z,26.94
2019-05-21T10:59:03.270Z,27.15
2019-05-21T11:00:03.364Z,27.23
2019-05-21T11:01:03.262Z,27.46
2019-05-21T11:02:03.231Z,27.86
2019-05-21T11:03:03.270Z,28.87
2019-05-21T11:04:03.274Z,29.52
2019-05-21T11:05:03.222Z,29.94
2019-05-21T11:06:10.225Z,29.76
2019-05-21T11:07:04.179Z,29.49
2019-05-21T11:08:23.096Z,29.35
2019-05-21T11:09:04.158Z,29.15
2019-05-21T11:10:03.179Z,29.07
2019-05-21T11:11:03.150Z,28.97
2019-05-21T11:12:03.127Z,28.74
2019-05-21T11:13:03.115Z,28.67
2019-05-21T11:14:03.111Z,28.55
2019-05-21T11:15:03.124Z,28.38
2019-05-21T11:16:03.185Z,28.08
2019-05-21T11:17:03.071Z,27.80
2019-05-21T11:18:11.492Z,27.61
2019-05-21T11:19:04.051Z,27.48
2019-05-21T11:20:03.038Z,27.43
2019-05-21T11:21:03.032Z,27.52
2019-05-21T11:22:03.046Z,27.52
2019-05-21T11:23:03.025Z,27.53
2019-05-21T11:24:03.092Z,27.50
2019-05-21T11:25:02.985Z,27.52
2019-05-21T11:26:03.128Z,27.62
2019-05-21T11:27:04.849Z,27.62
2019-05-21T11:28:06.005Z,27.61
2019-05-21T11:29:02.941Z,27.74
2019-05-21T11:30:02.947Z,27.91
2019-05-21T11:31:02.983Z,27.96
2019-05-21T11:32:02.919Z,28.13
2019-05-21T11:33:02.917Z,28.82
2019-05-21T11:34:02.894Z,29.91
2019-05-21T11:35:02.885Z,31.15
2019-05-21T11:36:02.898Z,32.36
2019-05-21T11:37:02.931Z,33.11
2019-05-21T11:38:02.874Z,34.08
2019-05-21T11:39:02.840Z,34.61
2019-05-21T11:40:02.832Z,34.36
2019-05-21T11:41:02.863Z,33.79
2019-05-21T11:42:02.808Z,32.81
2019-05-21T11:43:02.811Z,31.99
2019-05-21T11:44:02.798Z,31.47
2019-05-21T11:45:02.794Z,31.19
2019-05-21T11:46:03.307Z,30.88
2019-05-21T11:47:02.767Z,30.67
2019-05-21T11:48:02.768Z,30.15
2019-05-21T11:49:02.742Z,29.63
2019-05-21T11:50:02.735Z,29.70
2019-05-21T11:51:02.724Z,30.00
2019-05-21T11:52:02.719Z,30.57
2019-05-21T11:53:02.714Z,30.90
2019-05-21T11:54:02.689Z,30.81
2019-05-21T11:55:02.694Z,30.54
2019-05-21T11:56:02.683Z,30.66
2019-05-21T11:57:02.664Z,30.75
2019-05-21T11:58:02.669Z,30.83
2019-05-21T11:59:02.685Z,30.86
2019-05-21T12:00:02.635Z,30.70
2019-05-21T12:01:02.627Z,30.72
2019-05-21T12:02:02.616Z,30.93
2019-05-21T12:03:02.658Z,31.07
2019-05-21T12:04:02.604Z,31.46
2019-05-21T12:05:02.586Z,31.76
2019-05-21T12:06:02.570Z,32.21
2019-05-21T12:07:03.659Z,32.13
2019-05-21T12:08:02.555Z,32.32
2019-05-21T12:09:02.558Z,32.22
2019-05-21T12:10:02.566Z,31.97
2019-05-21T12:11:02.535Z,32.13
2019-05-21T12:12:02.524Z,32.17
2019-05-21T12:13:02.530Z,31.87
2019-05-21T12:14:02.508Z,31.74
2019-05-21T12:15:02.484Z,31.76
2019-05-21T12:16:02.497Z,31.94
2019-05-21T12:17:02.473Z,31.56
2019-05-21T12:18:02.465Z,31.67
2019-05-21T12:19:02.464Z,31.64
2019-05-21T12:20:02.436Z,31.15
2019-05-21T12:21:02.429Z,31.40
2019-05-21T12:22:02.423Z,31.74
2019-05-21T12:23:02.421Z,32.07
2019-05-21T12:24:02.412Z,32.09
2019-05-21T12:25:02.386Z,31.99
2019-05-21T12:26:02.387Z,32.06
2019-05-21T12:27:02.370Z,32.88
2019-05-21T12:28:02.367Z,33.68
2019-05-21T12:29:02.391Z,34.08
2019-05-21T12:30:02.349Z,34.76
2019-05-21T12:31:02.353Z,34.48
2019-05-21T12:32:02.352Z,34.80
2019-05-21T12:33:02.316Z,35.22
2019-05-21T12:34:02.304Z,35.59
2019-05-21T12:35:02.338Z,35.05
2019-05-21T12:36:02.292Z,34.50
2019-05-21T12:37:02.285Z,33.84
2019-05-21T12:38:02.266Z,33.26
2019-05-21T12:39:13.824Z,32.51
2019-05-21T12:40:03.271Z,32.02
2019-05-21T12:41:02.246Z,31.59
2019-05-21T12:42:02.243Z,31.22
2019-05-21T12:43:02.233Z,30.88
2019-05-21T12:44:02.211Z,30.96
2019-05-21T12:45:02.226Z,30.88
2019-05-21T12:46:02.189Z,30.85
2019-05-21T12:47:03.173Z,31.74
2019-05-21T12:48:02.179Z,32.44
2019-05-21T12:49:02.168Z,32.65
2019-05-21T12:50:02.161Z,33.31
2019-05-21T12:51:02.172Z,33.82
2019-05-21T12:52:02.132Z,34.50